createdAt,value
2023-05-14T00:00:06.604Z,8.00
2023-05-14T00:02:35.415Z,8.00
2023-05-14T00:05:03.937Z,8.10
2023-05-14T00:07:33.798Z,8.20
2023-05-14T00:10:02.296Z,8.20
2023-05-14T00:12:31.199Z,8.30
2023-05-14T00:14:59.872Z,8.30
2023-05-14T00:17:28.406Z,8.30
2023-05-14T00:19:57.106Z,8.20
2023-05-14T00:22:25.567Z,8.30
2023-05-14T00:24:55.614Z,8.30
2023-05-14T00:27:24.059Z,8.40
2023-05-14T00:29:52.684Z,8.40
2023-05-14T00:32:21.370Z,8.40
2023-05-14T00:34:50.259Z,8.40
2023-05-14T00:37:18.858Z,8.40
2023-05-14T00:39:47.305Z,8.40
2023-05-14T00:42:17.177Z,8.40
2023-05-14T00:44:45.828Z,8.30
2023-05-14T00:47:14.651Z,8.30
2023-05-14T00:49:44.189Z,8.30
2023-05-14T00:52:13.111Z,8.40
2023-05-14T00:54:41.982Z,8.40
2023-05-14T00:57:10.883Z,8.40
2023-05-14T00:59:42.869Z,8.40
2023-05-14T01:02:11.710Z,8.40
2023-05-14T01:04:44.220Z,8.50
2023-05-14T01:07:22.281Z,8.50
2023-05-14T01:09:56.697Z,8.50
2023-05-14T01:12:37.978Z,8.60
2023-05-14T01:15:13.842Z,8.60
2023-05-14T01:17:47.876Z,8.60
2023-05-14T01:20:17.724Z,8.70
2023-05-14T01:22:47.619Z,8.70
2023-05-14T01:25:16.077Z,8.70
2023-05-14T01:27:51.643Z,8.80
2023-05-14T01:30:24.940Z,8.80
2023-05-14T01:33:00.273Z,8.80
2023-05-14T01:35:31.094Z,8.70
2023-05-14T01:38:05.270Z,8.70
2023-05-14T01:40:34.654Z,8.70
2023-05-14T01:43:04.041Z,8.80
2023-05-14T01:45:34.332Z,8.80
2023-05-14T01:48:02.909Z,8.70
2023-05-14T01:50:31.472Z,8.70
2023-05-14T01:53:01.355Z,8.80
2023-05-14T01:55:30.142Z,8.80
2023-05-14T01:57:58.896Z,8.80
2023-05-14T02:00:27.915Z,8.80
2023-05-14T02:02:56.485Z,8.80
2023-05-14T02:05:25.086Z,8.80
2023-05-14T02:07:53.867Z,8.80
2023-05-14T02:10:23.960Z,8.90
2023-05-14T02:12:52.553Z,8.90
2023-05-14T02:15:21.004Z,8.80
2023-05-14T02:17:49.739Z,8.80
2023-05-14T02:20:18.425Z,8.90
2023-05-14T02:22:46.993Z,8.80
2023-05-14T02:25:15.918Z,8.80
2023-05-14T02:27:46.256Z,8.90
2023-05-14T02:30:15.186Z,8.90
2023-05-14T02:32:43.672Z,9.00
2023-05-14T02:35:12.180Z,9.00
2023-05-14T02:37:40.632Z,9.10
2023-05-14T02:40:10.899Z,9.10
2023-05-14T02:42:39.410Z,9.10
2023-05-14T02:45:10.511Z,9.10
2023-05-14T02:47:39.168Z,9.10
2023-05-14T02:50:09.654Z,9.10
2023-05-14T02:52:38.289Z,9.10
2023-05-14T02:55:08.011Z,9.20
2023-05-14T02:57:36.420Z,9.20
2023-05-14T03:02:56.877Z,9.20
2023-05-14T03:05:25.888Z,9.20
2023-05-14T03:07:55.225Z,9.20
2023-05-14T03:10:23.896Z,9.20
2023-05-14T03:12:52.872Z,9.20
2023-05-14T03:15:21.521Z,9.20
2023-05-14T03:17:50.272Z,9.30
2023-05-14T03:20:20.763Z,9.30
2023-05-14T03:22:49.215Z,9.20
2023-05-14T03:25:17.783Z,9.20
2023-05-14T03:27:46.325Z,9.20
2023-05-14T03:30:15.283Z,9.20
2023-05-14T03:32:44.033Z,9.20
2023-05-14T03:35:12.512Z,9.20
2023-05-14T03:37:42.622Z,9.20
2023-05-14T03:40:12.124Z,9.20
2023-05-14T03:42:40.548Z,9.20
2023-05-14T03:45:11.063Z,9.20
2023-05-14T03:47:39.584Z,9.20
2023-05-14T03:50:10.178Z,9.20
2023-05-14T03:52:39.442Z,9.20
2023-05-14T03:55:10.672Z,9.20
2023-05-14T03:57:39.164Z,9.20
2023-05-14T04:00:09.852Z,9.20
2023-05-14T04:02:38.314Z,9.20
2023-05-14T04:05:07.347Z,9.10
2023-05-14T04:07:36.053Z,9.20
2023-05-14T04:10:05.007Z,9.20
2023-05-14T04:12:35.045Z,9.10
2023-05-14T04:15:03.933Z,9.10
2023-05-14T04:17:34.508Z,9.10
2023-05-14T04:20:03.588Z,9.10
2023-05-14T04:22:32.335Z,9.10
2023-05-14T04:25:00.771Z,9.10
2023-05-14T04:27:30.225Z,9.00
2023-05-14T04:30:00.341Z,9.00
2023-05-14T04:32:28.842Z,8.90
2023-05-14T04:34:57.581Z,8.90
2023-05-14T04:37:26.160Z,8.90
2023-05-14T04:39:54.786Z,8.90
2023-05-14T04:42:23.215Z,8.90
2023-05-14T04:44:51.870Z,8.90
2023-05-14T04:47:22.503Z,9.00
2023-05-14T04:49:51.155Z,9.10
2023-05-14T04:52:19.806Z,9.10
2023-05-14T04:54:48.441Z,9.10
2023-05-14T04:57:17.318Z,9.10
2023-05-14T04:59:45.968Z,9.20
2023-05-14T05:02:14.400Z,9.20
2023-05-14T05:04:44.205Z,9.30
2023-05-14T05:07:13.321Z,9.40
2023-05-14T05:09:42.072Z,9.40
2023-05-14T05:12:11.114Z,9.40
2023-05-14T05:14:39.571Z,9.40
2023-05-14T05:17:08.245Z,9.40
2023-05-14T05:19:43.575Z,9.40
2023-05-14T05:22:13.838Z,9.40
2023-05-14T05:24:42.332Z,9.40
2023-05-14T05:27:10.746Z,9.40
2023-05-14T05:29:39.304Z,9.40
2023-05-14T05:32:09.179Z,9.40
2023-05-14T05:34:37.695Z,9.40
2023-05-14T05:37:06.336Z,9.40
2023-05-14T05:39:36.195Z,9.30
2023-05-14T05:42:04.991Z,9.30
2023-05-14T05:44:33.651Z,9.20
2023-05-14T05:47:02.141Z,9.30
2023-05-14T05:49:30.862Z,9.30
2023-05-14T05:51:59.515Z,9.30
2023-05-14T05:54:27.935Z,9.30
2023-05-14T05:56:57.727Z,9.40
2023-05-14T05:59:26.742Z,9.40
2023-05-14T06:01:55.614Z,9.40
2023-05-14T06:04:24.104Z,9.30
2023-05-14T06:06:52.546Z,9.30
2023-05-14T06:09:20.956Z,9.30
2023-05-14T06:11:49.371Z,9.30
2023-05-14T06:14:19.171Z,9.30
2023-05-14T06:16:47.672Z,9.40
2023-05-14T06:19:16.335Z,9.50
2023-05-14T06:21:44.990Z,9.50
2023-05-14T06:24:14.158Z,9.50
2023-05-14T06:26:42.788Z,9.50
2023-05-14T06:29:11.180Z,9.60
2023-05-14T06:31:41.049Z,9.60
2023-05-14T06:34:09.538Z,9.60
2023-05-14T06:36:38.259Z,9.70
2023-05-14T06:39:06.754Z,9.60
2023-05-14T06:41:35.176Z,9.70
2023-05-14T06:44:03.717Z,9.70
2023-05-14T06:46:32.368Z,9.70
2023-05-14T06:49:02.196Z,9.70
2023-05-14T06:51:30.977Z,9.70
2023-05-14T06:53:59.425Z,9.70
2023-05-14T06:56:27.954Z,9.70
2023-05-14T06:58:56.354Z,9.80
2023-05-14T07:01:24.841Z,9.80
2023-05-14T07:03:53.354Z,9.80
2023-05-14T07:06:23.597Z,9.90
2023-05-14T07:08:52.176Z,9.90
2023-05-14T07:11:20.609Z,10.00
2023-05-14T07:13:49.216Z,10.00
2023-05-14T07:16:17.730Z,10.00
2023-05-14T07:18:46.808Z,9.90
2023-05-14T07:21:15.508Z,10.00
2023-05-14T07:23:45.328Z,10.00
2023-05-14T07:26:14.213Z,10.00
2023-05-14T07:28:42.601Z,10.00
2023-05-14T07:31:11.516Z,10.10
2023-05-14T07:33:40.112Z,10.10
2023-05-14T07:36:09.343Z,10.20
2023-05-14T07:38:38.155Z,10.30
2023-05-14T07:41:08.814Z,10.30
2023-05-14T07:43:38.761Z,10.50
2023-05-14T07:46:07.491Z,10.50
2023-05-14T07:48:36.141Z,10.70
2023-05-14T07:51:04.684Z,10.90
2023-05-14T07:53:33.120Z,11.00
2023-05-14T07:56:01.852Z,11.00
2023-05-14T07:58:31.958Z,11.00
2023-05-14T08:01:02.236Z,11.00
2023-05-14T08:03:30.779Z,11.00
2023-05-14T08:05:59.307Z,11.00
2023-05-14T08:08:27.896Z,11.10
2023-05-14T08:10:56.435Z,11.00
2023-05-14T08:13:24.959Z,11.10
2023-05-14T08:15:54.785Z,11.10
2023-05-14T08:18:23.268Z,11.10
2023-05-14T08:20:51.795Z,11.10
2023-05-14T08:23:20.270Z,11.00
2023-05-14T08:25:48.679Z,11.00
2023-05-14T08:28:17.156Z,11.00
2023-05-14T08:30:45.954Z,11.00
2023-05-14T08:33:15.813Z,11.00
2023-05-14T08:35:44.355Z,11.00
2023-05-14T08:38:13.045Z,11.00
2023-05-14T08:40:41.597Z,11.10
2023-05-14T08:43:12.108Z,11.20
2023-05-14T08:45:41.886Z,11.30
2023-05-14T08:48:15.464Z,11.40
2023-05-14T08:50:44.251Z,11.40
2023-05-14T08:53:12.686Z,11.40
2023-05-14T08:55:41.500Z,11.50
2023-05-14T08:58:10.006Z,11.50
2023-05-14T09:00:38.443Z,11.50
2023-05-14T09:03:08.051Z,11.50
2023-05-14T09:05:38.839Z,11.60
2023-05-14T09:08:07.704Z,11.60
2023-05-14T09:10:36.162Z,11.60
2023-05-14T09:13:05.424Z,11.50
2023-05-14T09:15:36.309Z,11.40
2023-05-14T09:18:07.072Z,11.40
2023-05-14T09:20:37.160Z,11.40
2023-05-14T09:25:57.274Z,11.70
2023-05-14T09:28:28.163Z,12.10
2023-05-14T09:30:57.185Z,12.40
2023-05-14T09:33:29.289Z,12.60
2023-05-14T09:36:01.786Z,12.60
2023-05-14T09:38:31.335Z,12.60
2023-05-14T09:41:00.072Z,12.60
2023-05-14T09:43:28.530Z,12.70
2023-05-14T09:45:56.956Z,12.60
2023-05-14T09:48:26.195Z,12.60
2023-05-14T09:50:54.763Z,13.30
2023-05-14T09:53:24.562Z,13.70
2023-05-14T09:55:52.969Z,13.80
2023-05-14T09:58:21.500Z,13.70
2023-05-14T10:00:50.353Z,13.50
2023-05-14T10:03:21.839Z,13.30
2023-05-14T10:05:53.269Z,13.10
2023-05-14T10:08:28.036Z,13.00
2023-05-14T10:10:57.898Z,13.00
2023-05-14T10:13:41.508Z,13.00
2023-05-14T10:16:17.556Z,13.20
2023-05-14T10:18:52.926Z,14.00
2023-05-14T10:21:23.784Z,14.60
2023-05-14T10:23:54.194Z,15.20
2023-05-14T10:26:24.079Z,15.60
2023-05-14T10:28:52.814Z,15.40
2023-05-14T10:31:24.924Z,15.00
2023-05-14T10:33:54.724Z,14.80
2023-05-14T10:36:24.436Z,14.70
2023-05-14T10:38:58.587Z,15.00
2023-05-14T10:41:27.109Z,15.50
2023-05-14T10:43:58.832Z,15.10
2023-05-14T10:46:27.615Z,14.50
2023-05-14T10:48:56.169Z,14.10
2023-05-14T10:51:25.703Z,13.70
2023-05-14T10:53:54.551Z,13.60
2023-05-14T10:56:24.449Z,13.40
2023-05-14T10:58:53.218Z,13.20
2023-05-14T11:01:25.775Z,13.10
2023-05-14T11:03:56.039Z,13.10
2023-05-14T11:06:24.610Z,13.10
2023-05-14T11:08:53.707Z,13.00
2023-05-14T11:11:26.133Z,13.10
2023-05-14T11:13:55.535Z,13.00
2023-05-14T11:16:24.624Z,13.10
2023-05-14T11:19:03.483Z,13.10
2023-05-14T11:21:32.949Z,13.20
2023-05-14T11:24:02.278Z,13.40
2023-05-14T11:26:33.888Z,13.60
2023-05-14T11:29:02.477Z,13.70
2023-05-14T11:31:30.977Z,13.80
2023-05-14T11:34:00.163Z,13.90
2023-05-14T11:36:28.960Z,14.00
2023-05-14T11:38:57.411Z,14.00
2023-05-14T11:41:28.112Z,14.20
2023-05-14T11:43:58.148Z,14.10
2023-05-14T11:46:26.629Z,13.90
2023-05-14T11:48:55.102Z,13.70
2023-05-14T11:51:24.622Z,13.50
2023-05-14T11:53:53.018Z,13.50
2023-05-14T11:56:23.412Z,13.50
2023-05-14T11:58:58.912Z,13.50
2023-05-14T12:01:28.721Z,13.50
2023-05-14T12:03:57.276Z,13.50
2023-05-14T12:06:32.341Z,13.50
2023-05-14T12:09:01.615Z,13.60
2023-05-14T12:11:32.996Z,13.90
2023-05-14T12:14:03.341Z,14.10
2023-05-14T12:16:34.833Z,14.30
2023-05-14T12:19:04.850Z,14.60
2023-05-14T12:21:33.385Z,14.70
2023-05-14T12:24:02.289Z,14.60
2023-05-14T12:26:34.883Z,14.80
2023-05-14T12:29:07.148Z,14.80
2023-05-14T12:31:37.332Z,14.60
2023-05-14T12:34:06.018Z,14.30
2023-05-14T12:36:34.451Z,14.20
2023-05-14T12:39:06.047Z,14.20
2023-05-14T12:41:35.024Z,14.20
2023-05-14T12:44:06.273Z,14.50
2023-05-14T12:46:35.358Z,14.70
2023-05-14T12:49:03.921Z,15.10
2023-05-14T12:51:32.605Z,14.90
2023-05-14T12:54:01.040Z,14.70
2023-05-14T12:56:31.648Z,14.10
2023-05-14T12:59:00.326Z,13.60
2023-05-14T13:01:30.172Z,13.40
2023-05-14T13:03:59.879Z,13.10
2023-05-14T13:06:28.344Z,12.90
2023-05-14T13:08:56.828Z,12.80
2023-05-14T13:11:25.771Z,12.80
2023-05-14T13:13:54.202Z,12.90
2023-05-14T13:16:22.707Z,12.90
2023-05-14T13:18:52.670Z,12.90
2023-05-14T13:21:21.306Z,13.00
2023-05-14T13:23:50.008Z,13.20
2023-05-14T13:26:18.574Z,13.30
2023-05-14T13:28:47.401Z,13.40
2023-05-14T13:31:16.116Z,13.40
2023-05-14T13:33:46.010Z,13.20
2023-05-14T13:36:16.541Z,13.10
2023-05-14T13:38:45.899Z,13.00
2023-05-14T13:41:14.351Z,13.00
2023-05-14T13:43:42.790Z,12.90
2023-05-14T13:46:11.465Z,13.00
2023-05-14T13:48:39.903Z,12.90
2023-05-14T13:51:08.593Z,12.70
2023-05-14T13:53:38.393Z,12.60
2023-05-14T13:56:08.618Z,12.40
2023-05-14T13:58:37.080Z,12.10
2023-05-14T14:01:05.841Z,12.10
2023-05-14T14:03:34.382Z,12.10
2023-05-14T14:06:02.814Z,12.00
2023-05-14T14:08:31.273Z,12.00
2023-05-14T14:11:01.457Z,11.90
2023-05-14T14:13:30.283Z,11.80
2023-05-14T14:15:58.802Z,11.70
2023-05-14T14:18:27.684Z,11.60
2023-05-14T14:20:56.387Z,11.60
2023-05-14T14:23:24.841Z,11.60
2023-05-14T14:25:53.262Z,11.50
2023-05-14T14:28:23.147Z,11.40
2023-05-14T14:30:52.063Z,11.40
2023-05-14T14:33:20.494Z,11.50
2023-05-14T14:35:48.935Z,11.50
2023-05-14T14:38:17.529Z,11.40
2023-05-14T14:40:46.178Z,11.40
2023-05-14T14:43:14.659Z,11.40
2023-05-14T14:45:48.169Z,11.40
2023-05-14T14:48:26.864Z,11.30
2023-05-14T14:50:56.281Z,11.40
2023-05-14T14:53:26.020Z,11.60
2023-05-14T14:55:55.268Z,11.80
2023-05-14T14:58:23.919Z,11.80
2023-05-14T15:00:56.803Z,11.90
2023-05-14T15:03:26.267Z,11.90
2023-05-14T15:05:54.849Z,11.90
2023-05-14T15:08:27.960Z,12.00
2023-05-14T15:10:57.176Z,12.00
2023-05-14T15:13:26.955Z,12.10
2023-05-14T15:15:56.807Z,12.20
2023-05-14T15:18:25.959Z,12.50
2023-05-14T15:20:54.560Z,12.70
2023-05-14T15:23:23.021Z,12.70
2023-05-14T15:25:52.087Z,12.70
2023-05-14T15:28:20.894Z,12.70
2023-05-14T15:30:49.877Z,12.60
2023-05-14T15:33:19.890Z,12.60
2023-05-14T15:35:48.413Z,12.60
2023-05-14T15:38:16.882Z,12.70
2023-05-14T15:40:45.417Z,12.60
2023-05-14T15:43:13.940Z,12.70
2023-05-14T15:45:44.083Z,12.80
2023-05-14T15:48:12.576Z,12.80
2023-05-14T15:50:42.414Z,12.80
2023-05-14T15:53:11.043Z,12.80
2023-05-14T15:55:39.521Z,12.80
2023-05-14T15:58:08.025Z,12.60
2023-05-14T16:00:39.389Z,12.50
2023-05-14T16:03:07.930Z,12.40
2023-05-14T16:05:36.575Z,12.40
2023-05-14T16:08:07.253Z,12.40
2023-05-14T16:10:35.689Z,12.40
2023-05-14T16:13:04.160Z,12.50
2023-05-14T16:15:32.646Z,12.70
2023-05-14T16:18:02.168Z,12.90
2023-05-14T16:20:30.701Z,12.90
2023-05-14T16:22:59.116Z,13.00
2023-05-14T16:25:30.071Z,13.00
2023-05-14T16:27:58.544Z,13.20
2023-05-14T16:30:27.210Z,13.10
2023-05-14T16:32:55.743Z,13.10
2023-05-14T16:35:24.284Z,13.00
2023-05-14T16:37:52.790Z,12.70
2023-05-14T16:40:23.367Z,12.70
2023-05-14T16:42:53.463Z,12.60
2023-05-14T16:45:22.117Z,12.50
2023-05-14T16:47:50.771Z,12.40
2023-05-14T16:50:19.425Z,12.40
2023-05-14T16:52:47.884Z,12.30
2023-05-14T16:55:16.694Z,12.20
2023-05-14T16:57:45.123Z,12.20
2023-05-14T17:00:16.701Z,12.20
2023-05-14T17:02:49.026Z,12.10
2023-05-14T17:05:17.791Z,12.20
2023-05-14T17:07:46.268Z,12.10
2023-05-14T17:10:14.725Z,12.10
2023-05-14T17:12:43.491Z,12.10
2023-05-14T17:15:14.252Z,12.10
2023-05-14T17:17:42.990Z,12.00
2023-05-14T17:20:14.117Z,12.00
2023-05-14T17:22:44.676Z,12.10
2023-05-14T17:25:13.264Z,12.00
2023-05-14T17:27:41.974Z,12.10
2023-05-14T17:30:11.596Z,12.00
2023-05-14T17:32:41.783Z,12.00
2023-05-14T17:35:11.701Z,11.90
2023-05-14T17:37:42.989Z,11.80
2023-05-14T17:40:13.259Z,11.80
2023-05-14T17:42:41.978Z,11.70
2023-05-14T17:45:11.431Z,11.70
2023-05-14T17:47:41.397Z,11.60
2023-05-14T17:50:11.255Z,11.50
2023-05-14T17:52:42.149Z,11.40
2023-05-14T17:55:11.043Z,11.30
2023-05-14T17:57:39.713Z,11.30
2023-05-14T18:00:09.833Z,11.10
2023-05-14T18:02:38.304Z,11.10
2023-05-14T18:05:09.472Z,11.00
2023-05-14T18:07:37.907Z,11.00
2023-05-14T18:10:08.266Z,11.00
2023-05-14T18:12:36.737Z,10.90
2023-05-14T18:15:06.542Z,10.90
2023-05-14T18:17:35.002Z,10.90
2023-05-14T18:20:03.615Z,10.80
2023-05-14T18:22:33.426Z,10.80
2023-05-14T18:25:01.832Z,10.90
2023-05-14T18:27:30.465Z,10.80
2023-05-14T18:29:58.879Z,10.80
2023-05-14T18:32:27.585Z,10.90
2023-05-14T18:34:56.029Z,10.90
2023-05-14T18:37:24.464Z,10.90
2023-05-14T18:39:54.881Z,10.90
2023-05-14T18:42:23.304Z,10.80
2023-05-14T18:44:51.684Z,10.60
2023-05-14T18:47:20.137Z,10.50
2023-05-14T18:49:50.582Z,10.50
2023-05-14T18:52:19.037Z,10.50
2023-05-14T18:54:47.439Z,10.40
2023-05-14T18:57:17.364Z,10.40
2023-05-14T18:59:45.826Z,10.30
2023-05-14T19:02:14.442Z,10.20
2023-05-14T19:04:51.870Z,10.20
2023-05-14T19:07:21.539Z,10.20
2023-05-14T19:09:50.137Z,10.20
2023-05-14T19:12:20.002Z,10.10
2023-05-14T19:14:48.540Z,10.10
2023-05-14T19:17:18.611Z,10.00
2023-05-14T19:19:48.925Z,9.90
2023-05-14T19:22:17.499Z,9.90
2023-05-14T19:24:46.134Z,9.80
2023-05-14T19:27:16.287Z,9.70
2023-05-14T19:29:46.446Z,9.50
2023-05-14T19:32:14.905Z,9.50
2023-05-14T19:34:43.352Z,9.50
2023-05-14T19:37:12.679Z,9.50
2023-05-14T19:39:41.115Z,9.40
2023-05-14T19:42:09.569Z,9.30
2023-05-14T19:44:37.975Z,9.20
2023-05-14T19:47:08.784Z,9.20
2023-05-14T19:49:37.360Z,9.20
2023-05-14T19:52:06.601Z,9.30
2023-05-14T19:54:35.048Z,9.40
2023-05-14T19:57:03.506Z,9.40
2023-05-14T19:59:32.155Z,9.40
2023-05-14T20:02:01.273Z,9.50
2023-05-14T20:04:31.367Z,9.50
2023-05-14T20:06:59.935Z,9.40
2023-05-14T20:09:28.425Z,9.20
2023-05-14T20:11:56.872Z,9.20
2023-05-14T20:14:25.418Z,9.20
2023-05-14T20:16:53.940Z,9.20
2023-05-14T20:19:22.614Z,9.20
2023-05-14T20:21:52.796Z,9.20
2023-05-14T20:24:21.222Z,9.20
2023-05-14T20:26:49.669Z,9.20
2023-05-14T20:29:18.122Z,9.20
2023-05-14T20:31:46.590Z,9.20
2023-05-14T20:34:14.993Z,9.20
2023-05-14T20:36:43.418Z,9.30
2023-05-14T20:39:14.925Z,9.30
2023-05-14T20:41:45.557Z,9.40
2023-05-14T20:44:13.973Z,9.30
2023-05-14T20:46:42.423Z,9.30
2023-05-14T20:49:10.865Z,9.20
2023-05-14T20:51:39.339Z,9.10
2023-05-14T20:54:07.878Z,9.00
2023-05-14T20:56:37.989Z,9.00
2023-05-14T20:59:06.528Z,9.00
2023-05-14T21:01:34.993Z,8.90
2023-05-14T21:04:03.646Z,8.80
2023-05-14T21:06:32.262Z,8.70
2023-05-14T21:09:00.701Z,8.50
2023-05-14T21:11:29.147Z,8.30
2023-05-14T21:13:59.373Z,8.20
2023-05-14T21:16:27.817Z,8.20
2023-05-14T21:18:56.531Z,8.20
2023-05-14T21:21:25.994Z,8.10
2023-05-14T21:23:54.429Z,8.10
2023-05-14T21:26:23.141Z,7.90
2023-05-14T21:28:51.553Z,7.70
2023-05-14T21:31:21.392Z,7.60
2023-05-14T21:33:49.838Z,7.60
2023-05-14T21:36:18.677Z,7.50
2023-05-14T21:38:47.125Z,7.40
2023-05-14T21:41:15.597Z,7.40
2023-05-14T21:43:45.221Z,7.30
2023-05-14T21:46:13.660Z,7.40
2023-05-14T21:48:43.665Z,7.50
2023-05-14T21:51:12.376Z,7.50
2023-05-14T21:53:41.021Z,7.60
2023-05-14T21:56:09.527Z,7.70
2023-05-14T21:58:37.983Z,7.70
2023-05-14T22:01:06.754Z,7.60
2023-05-14T22:03:35.699Z,7.60
2023-05-14T22:06:06.712Z,7.60
2023-05-14T22:08:35.200Z,7.60
2023-05-14T22:11:03.906Z,7.70
2023-05-14T22:13:32.375Z,7.80
2023-05-14T22:16:09.201Z,7.80
2023-05-14T22:18:41.126Z,7.80
2023-05-14T22:21:11.000Z,7.90
2023-05-14T22:23:39.437Z,7.90
2023-05-14T22:26:07.929Z,7.90
2023-05-14T22:28:40.057Z,7.80
2023-05-14T22:31:08.498Z,7.90
2023-05-14T22:33:37.492Z,8.00
2023-05-14T22:36:07.460Z,8.00
2023-05-14T22:38:37.322Z,8.00
2023-05-14T22:41:05.831Z,8.00
2023-05-14T22:43:34.251Z,7.90
2023-05-14T22:46:03.004Z,7.90
2023-05-14T22:48:31.554Z,7.70
2023-05-14T22:50:59.976Z,7.60
2023-05-14T22:53:28.443Z,7.60
2023-05-14T22:55:58.867Z,7.60
2023-05-14T22:58:27.294Z,7.60
2023-05-14T23:00:55.703Z,7.60
2023-05-14T23:03:24.156Z,7.60
2023-05-14T23:05:53.410Z,7.60
2023-05-14T23:08:22.138Z,7.70
2023-05-14T23:10:50.616Z,7.70
2023-05-14T23:13:20.601Z,7.70
2023-05-14T23:15:49.057Z,7.80
2023-05-14T23:18:17.664Z,7.80
2023-05-14T23:20:46.201Z,7.80
2023-05-14T23:23:14.630Z,7.80
2023-05-14T23:25:43.299Z,7.70
2023-05-14T23:28:12.834Z,7.60
2023-05-14T23:30:42.634Z,7.50
2023-05-14T23:33:11.348Z,7.40
2023-05-14T23:35:40.298Z,7.30
2023-05-14T23:38:09.173Z,7.30
2023-05-14T23:40:37.628Z,7.20
2023-05-14T23:43:06.132Z,7.20
2023-05-14T23:45:34.787Z,7.10
2023-05-14T23:48:05.307Z,7.10
2023-05-14T23:50:33.760Z,7.10
2023-05-14T23:53:02.399Z,7.10
2023-05-14T23:55:30.927Z,7.10
2023-05-14T23:57:59.417Z,7.10
